sensor_id;sensor_type;location;lat;lon;timestamp;pressure;altitude;pressure_sealevel;temperature;humidity
35489;BME280;21602;55.670;37.578;2023-06-05T00:00:57;99575.03;;;11.20;59.29
35489;BME280;21602;55.670;37.578;2023-06-05T00:03:23;99573.84;;;11.16;59.62
35489;BME280;21602;55.670;37.578;2023-06-05T00:05:55;99567.91;;;11.14;59.65
35489;BME280;21602;55.670;37.578;2023-06-05T00:08:23;99573.50;;;11.13;59.76
35489;BME280;21602;55.670;37.578;2023-06-05T00:10:49;99565.25;;;11.14;59.88
35489;BME280;21602;55.670;37.578;2023-06-05T00:13:14;99562.34;;;11.16;59.99
35489;BME280;21602;55.670;37.578;2023-06-05T00:15:41;99567.81;;;11.21;59.70
35489;BME280;21602;55.670;37.578;2023-06-05T00:18:06;99564.53;;;11.19;59.93
35489;BME280;21602;55.670;37.578;2023-06-05T00:20:33;99570.94;;;11.18;59.85
35489;BME280;21602;55.670;37.578;2023-06-05T00:22:59;99558.75;;;11.22;59.82
35489;BME280;21602;55.670;37.578;2023-06-05T00:25:25;99557.94;;;11.21;59.79
35489;BME280;21602;55.670;37.578;2023-06-05T00:27:50;99565.47;;;11.24;59.67
35489;BME280;21602;55.670;37.578;2023-06-05T00:30:18;99569.56;;;11.27;59.80
35489;BME280;21602;55.670;37.578;2023-06-05T00:32:43;99569.56;;;11.27;59.71
35489;BME280;21602;55.670;37.578;2023-06-05T00:35:09;99568.94;;;11.25;59.77
35489;BME280;21602;55.670;37.578;2023-06-05T00:37:34;99559.09;;;11.25;59.54
35489;BME280;21602;55.670;37.578;2023-06-05T00:40:02;99567.13;;;11.25;59.59
35489;BME280;21602;55.670;37.578;2023-06-05T00:42:28;99564.66;;;11.24;59.71
35489;BME280;21602;55.670;37.578;2023-06-05T00:44:54;99570.00;;;11.24;59.49
35489;BME280;21602;55.670;37.578;2023-06-05T00:47:20;99566.06;;;11.26;59.48
35489;BME280;21602;55.670;37.578;2023-06-05T00:49:47;99569.09;;;11.30;59.63
35489;BME280;21602;55.670;37.578;2023-06-05T00:52:13;99569.41;;;11.34;59.54
35489;BME280;21602;55.670;37.578;2023-06-05T00:54:39;99567.34;;;11.36;59.45
35489;BME280;21602;55.670;37.578;2023-06-05T00:57:05;99567.81;;;11.33;59.25
35489;BME280;21602;55.670;37.578;2023-06-05T00:59:33;99560.84;;;11.32;59.38
35489;BME280;21602;55.670;37.578;2023-06-05T01:01:59;99563.25;;;11.33;59.35
35489;BME280;21602;55.670;37.578;2023-06-05T01:04:28;99562.56;;;11.38;59.31
35489;BME280;21602;55.670;37.578;2023-06-05T01:06:55;99557.81;;;11.40;59.51
35489;BME280;21602;55.670;37.578;2023-06-05T01:09:24;99560.94;;;11.37;59.24
35489;BME280;21602;55.670;37.578;2023-06-05T01:12:02;99565.72;;;11.35;59.54
35489;BME280;21602;55.670;37.578;2023-06-05T01:14:30;99558.28;;;11.37;59.55
35489;BME280;21602;55.670;37.578;2023-06-05T01:16:59;99559.91;;;11.38;59.40
35489;BME280;21602;55.670;37.578;2023-06-05T01:19:26;99562.00;;;11.36;59.65
35489;BME280;21602;55.670;37.578;2023-06-05T01:21:55;99559.09;;;11.37;59.56
35489;BME280;21602;55.670;37.578;2023-06-05T01:24:21;99559.09;;;11.37;59.67
35489;BME280;21602;55.670;37.578;2023-06-05T01:27:02;99567.09;;;11.37;59.53
35489;BME280;21602;55.670;37.578;2023-06-05T01:32:02;99559.91;;;11.38;59.74
35489;BME280;21602;55.670;37.578;2023-06-05T01:34:32;99566.84;;;11.39;59.69
35489;BME280;21602;55.670;37.578;2023-06-05T01:36:59;99560.50;;;11.40;59.66
35489;BME280;21602;55.670;37.578;2023-06-05T01:39:25;99554.91;;;11.41;59.63
35489;BME280;21602;55.670;37.578;2023-06-05T01:41:52;99559.56;;;11.46;59.47
35489;BME280;21602;55.670;37.578;2023-06-05T01:44:19;99560.94;;;11.48;59.50
35489;BME280;21602;55.670;37.578;2023-06-05T01:46:45;99564.44;;;11.49;59.61
35489;BME280;21602;55.670;37.578;2023-06-05T01:49:11;99567.91;;;11.49;59.47
35489;BME280;21602;55.670;37.578;2023-06-05T01:51:37;99568.72;;;11.50;59.66
35489;BME280;21602;55.670;37.578;2023-06-05T01:54:02;99567.56;;;11.46;60.05
35489;BME280;21602;55.670;37.578;2023-06-05T01:56:28;99573.72;;;11.46;60.00
35489;BME280;21602;55.670;37.578;2023-06-05T01:58:55;99577.44;;;11.45;60.26
35489;BME280;21602;55.670;37.578;2023-06-05T02:01:21;99579.63;;;11.48;60.01
35489;BME280;21602;55.670;37.578;2023-06-05T02:03:48;99579.31;;;11.45;60.48
35489;BME280;21602;55.670;37.578;2023-06-05T02:06:16;99583.25;;;11.42;60.64
35489;BME280;21602;55.670;37.578;2023-06-05T02:08:42;99579.41;;;11.38;60.77
35489;BME280;21602;55.670;37.578;2023-06-05T02:11:08;99581.88;;;11.40;60.83
35489;BME280;21602;55.670;37.578;2023-06-05T02:13:38;99578.38;;;11.39;61.14
35489;BME280;21602;55.670;37.578;2023-06-05T02:16:05;99582.91;;;11.39;61.33
35489;BME280;21602;55.670;37.578;2023-06-05T02:18:31;99578.03;;;11.36;61.35
35489;BME280;21602;55.670;37.578;2023-06-05T02:20:57;99580.81;;;11.41;61.51
35489;BME280;21602;55.670;37.578;2023-06-05T02:23:23;99573.16;;;11.44;61.42
35489;BME280;21602;55.670;37.578;2023-06-05T02:25:49;99580.94;;;11.46;61.34
35489;BME280;21602;55.670;37.578;2023-06-05T02:28:15;99583.00;;;11.44;61.58
35489;BME280;21602;55.670;37.578;2023-06-05T02:30:41;99577.91;;;11.42;61.62
35489;BME280;21602;55.670;37.578;2023-06-05T02:33:10;99580.81;;;11.41;61.98
35489;BME280;21602;55.670;37.578;2023-06-05T02:35:36;99583.25;;;11.42;62.21
35489;BME280;21602;55.670;37.578;2023-06-05T02:38:02;99581.19;;;11.44;62.18
35489;BME280;21602;55.670;37.578;2023-06-05T02:40:31;99593.84;;;11.49;62.08
35489;BME280;21602;55.670;37.578;2023-06-05T02:42:56;99587.91;;;11.47;62.51
35489;BME280;21602;55.670;37.578;2023-06-05T02:45:22;99591.75;;;11.51;62.34
35489;BME280;21602;55.670;37.578;2023-06-05T02:47:48;99592.56;;;11.51;62.22
35489;BME280;21602;55.670;37.578;2023-06-05T02:50:13;99596.63;;;11.54;62.37
35489;BME280;21602;55.670;37.578;2023-06-05T02:52:44;99602.19;;;11.52;62.67
35489;BME280;21602;55.670;37.578;2023-06-05T02:55:15;99598.94;;;11.50;62.77
35489;BME280;21602;55.670;37.578;2023-06-05T02:57:44;99597.91;;;11.51;62.98
35489;BME280;21602;55.670;37.578;2023-06-05T03:00:15;99599.88;;;11.56;63.17
35489;BME280;21602;55.670;37.578;2023-06-05T03:02:43;99594.41;;;11.51;63.72
35489;BME280;21602;55.670;37.578;2023-06-05T03:05:15;99607.53;;;11.52;63.69
35489;BME280;21602;55.670;37.578;2023-06-05T03:07:41;99599.88;;;11.56;64.36
35489;BME280;21602;55.670;37.578;2023-06-05T03:10:07;99601.97;;;11.54;64.41
35489;BME280;21602;55.670;37.578;2023-06-05T03:12:33;99603.25;;;11.51;64.37
35489;BME280;21602;55.670;37.578;2023-06-05T03:15:00;99604.53;;;11.49;64.62
35489;BME280;21602;55.670;37.578;2023-06-05T03:17:29;99611.97;;;11.47;65.31
35489;BME280;21602;55.670;37.578;2023-06-05T03:19:56;99599.50;;;11.52;65.66
35489;BME280;21602;55.670;37.578;2023-06-05T03:22:22;99595.47;;;11.50;65.99
35489;BME280;21602;55.670;37.578;2023-06-05T03:24:51;99603.59;;;11.55;66.15
35489;BME280;21602;55.670;37.578;2023-06-05T03:27:17;99595.22;;;11.63;66.46
35489;BME280;21602;55.670;37.578;2023-06-05T03:29:42;99590.91;;;11.74;66.33
35489;BME280;21602;55.670;37.578;2023-06-05T03:32:09;99591.16;;;11.84;66.02
35489;BME280;21602;55.670;37.578;2023-06-05T03:34:37;99589.38;;;11.90;66.03
35489;BME280;21602;55.670;37.578;2023-06-05T03:37:04;99593.56;;;11.97;66.21
35489;BME280;21602;55.670;37.578;2023-06-05T03:39:30;99590.28;;;12.07;66.05
35489;BME280;21602;55.670;37.578;2023-06-05T03:41:57;99589.19;;;12.20;66.13
35489;BME280;21602;55.670;37.578;2023-06-05T03:44:27;99591.03;;;12.31;65.54
35489;BME280;21602;55.670;37.578;2023-06-05T03:46:53;99588.78;;;12.40;65.73
35489;BME280;21602;55.670;37.578;2023-06-05T03:49:19;99585.13;;;12.46;65.60
35489;BME280;21602;55.670;37.578;2023-06-05T03:51:48;99575.19;;;12.58;65.62
35489;BME280;21602;55.670;37.578;2023-06-05T03:54:15;99576.00;;;12.75;65.30
35489;BME280;21602;55.670;37.578;2023-06-05T03:56:42;99575.69;;;12.89;65.09
35489;BME280;21602;55.670;37.578;2023-06-05T03:59:14;99577.72;;;12.98;64.55
35489;BME280;21602;55.670;37.578;2023-06-05T04:01:55;99581.09;;;13.05;64.53
35489;BME280;21602;55.670;37.578;2023-06-05T04:04:23;99578.47;;;13.11;64.71
35489;BME280;21602;55.670;37.578;2023-06-05T04:06:50;99575.06;;;13.15;64.79
35489;BME280;21602;55.670;37.578;2023-06-05T04:09:16;99582.25;;;13.15;64.85
35489;BME280;21602;55.670;37.578;2023-06-05T04:11:43;99581.53;;;13.19;65.15
35489;BME280;21602;55.670;37.578;2023-06-05T04:14:10;99579.13;;;13.35;65.12
35489;BME280;21602;55.670;37.578;2023-06-05T04:16:39;99578.28;;;13.51;64.70
35489;BME280;21602;55.670;37.578;2023-06-05T04:19:06;99571.50;;;13.65;64.56
35489;BME280;21602;55.670;37.578;2023-06-05T04:21:33;99583.44;;;13.74;64.42
35489;BME280;21602;55.670;37.578;2023-06-05T04:24:03;99585.31;;;13.74;64.07
35489;BME280;21602;55.670;37.578;2023-06-05T04:26:35;99582.16;;;13.60;64.06
35489;BME280;21602;55.670;37.578;2023-06-05T04:29:02;99586.25;;;13.46;64.10
35489;BME280;21602;55.670;37.578;2023-06-05T04:31:31;99587.25;;;13.40;64.61
35489;BME280;21602;55.670;37.578;2023-06-05T04:33:58;99593.44;;;13.40;64.62
35489;BME280;21602;55.670;37.578;2023-06-05T04:36:25;99597.31;;;13.32;64.17
35489;BME280;21602;55.670;37.578;2023-06-05T04:38:51;99600.00;;;13.32;64.10
35489;BME280;21602;55.670;37.578;2023-06-05T04:41:17;99589.94;;;13.40;64.09
35489;BME280;21602;55.670;37.578;2023-06-05T04:43:43;99587.56;;;13.43;64.12
35489;BME280;21602;55.670;37.578;2023-06-05T04:46:08;99595.31;;;13.40;64.27
35489;BME280;21602;55.670;37.578;2023-06-05T04:48:34;99593.28;;;13.30;64.91
35489;BME280;21602;55.670;37.578;2023-06-05T04:51:00;99592.13;;;13.26;65.10
35489;BME280;21602;55.670;37.578;2023-06-05T04:53:26;99586.44;;;13.22;65.60
35489;BME280;21602;55.670;37.578;2023-06-05T04:55:54;99588.53;;;13.20;65.93
35489;BME280;21602;55.670;37.578;2023-06-05T04:58:21;99584.22;;;13.19;66.16
35489;BME280;21602;55.670;37.578;2023-06-05T05:00:49;99587.97;;;13.18;66.45
35489;BME280;21602;55.670;37.578;2023-06-05T05:03:16;99591.63;;;13.12;67.06
35489;BME280;21602;55.670;37.578;2023-06-05T05:05:44;99587.41;;;13.16;67.54
35489;BME280;21602;55.670;37.578;2023-06-05T05:08:10;99588.06;;;13.23;68.05
35489;BME280;21602;55.670;37.578;2023-06-05T05:10:36;99583.84;;;13.27;68.38
35489;BME280;21602;55.670;37.578;2023-06-05T05:13:02;99589.06;;;13.34;68.20
35489;BME280;21602;55.670;37.578;2023-06-05T05:15:28;99585.94;;;13.42;68.99
35489;BME280;21602;55.670;37.578;2023-06-05T05:17:55;99585.19;;;13.47;68.73
35489;BME280;21602;55.670;37.578;2023-06-05T05:20:23;99592.91;;;13.43;68.85
35489;BME280;21602;55.670;37.578;2023-06-05T05:22:49;99596.56;;;13.54;68.90
35489;BME280;21602;55.670;37.578;2023-06-05T05:25:15;99602.16;;;13.69;68.75
35489;BME280;21602;55.670;37.578;2023-06-05T05:27:41;99592.13;;;13.81;68.67
35489;BME280;21602;55.670;37.578;2023-06-05T05:30:08;99589.56;;;13.92;68.79
35489;BME280;21602;55.670;37.578;2023-06-05T05:32:34;99597.69;;;13.97;68.68
35489;BME280;21602;55.670;37.578;2023-06-05T05:35:00;99597.91;;;13.95;68.81
35489;BME280;21602;55.670;37.578;2023-06-05T05:37:28;99597.63;;;13.92;68.81
35489;BME280;21602;55.670;37.578;2023-06-05T05:39:58;99600.38;;;13.97;68.82
35489;BME280;21602;55.670;37.578;2023-06-05T05:42:24;99596.19;;;14.06;68.89
35489;BME280;21602;55.670;37.578;2023-06-05T05:44:49;99592.88;;;14.21;68.15
35489;BME280;21602;55.670;37.578;2023-06-05T05:47:15;99600.03;;;14.37;68.19
35489;BME280;21602;55.670;37.578;2023-06-05T05:49:42;99601.09;;;14.36;67.63
35489;BME280;21602;55.670;37.578;2023-06-05T05:52:08;99602.09;;;14.30;67.51
35489;BME280;21602;55.670;37.578;2023-06-05T05:54:34;99602.22;;;14.18;67.79
35489;BME280;21602;55.670;37.578;2023-06-05T05:57:00;99606.41;;;14.09;68.26
35489;BME280;21602;55.670;37.578;2023-06-05T05:59:25;99603.66;;;14.04;68.52
35489;BME280;21602;55.670;37.578;2023-06-05T06:01:51;99615.09;;;13.94;68.77
35489;BME280;21602;55.670;37.578;2023-06-05T06:04:18;99609.25;;;13.80;69.49
35489;BME280;21602;55.670;37.578;2023-06-05T06:06:44;99603.59;;;13.77;69.39
35489;BME280;21602;55.670;37.578;2023-06-05T06:09:12;99607.09;;;13.77;70.50
35489;BME280;21602;55.670;37.578;2023-06-05T06:11:39;99601.47;;;13.79;70.44
35489;BME280;21602;55.670;37.578;2023-06-05T06:14:04;99607.38;;;13.81;70.92
35489;BME280;21602;55.670;37.578;2023-06-05T06:16:30;99613.06;;;13.84;70.58
35489;BME280;21602;55.670;37.578;2023-06-05T06:18:56;99605.63;;;13.87;70.91
35489;BME280;21602;55.670;37.578;2023-06-05T06:21:24;99614.69;;;13.86;71.41
35489;BME280;21602;55.670;37.578;2023-06-05T06:23:51;99612.81;;;13.86;71.19
35489;BME280;21602;55.670;37.578;2023-06-05T06:26:17;99612.66;;;13.93;71.57
35489;BME280;21602;55.670;37.578;2023-06-05T06:28:42;99607.41;;;14.03;71.21
35489;BME280;21602;55.670;37.578;2023-06-05T06:31:08;99605.09;;;14.12;70.63
35489;BME280;21602;55.670;37.578;2023-06-05T06:33:34;99601.03;;;14.09;70.42
35489;BME280;21602;55.670;37.578;2023-06-05T06:36:01;99605.38;;;14.10;70.61
35489;BME280;21602;55.670;37.578;2023-06-05T06:38:28;99597.59;;;14.14;71.50
35489;BME280;21602;55.670;37.578;2023-06-05T06:41:18;99600.13;;;14.20;70.93
35489;BME280;21602;55.670;37.578;2023-06-05T06:43:43;99601.72;;;14.21;70.37
35489;BME280;21602;55.670;37.578;2023-06-05T06:46:16;99605.78;;;14.24;70.36
35489;BME280;21602;55.670;37.578;2023-06-05T06:48:42;99600.66;;;14.22;70.23
35489;BME280;21602;55.670;37.578;2023-06-05T06:51:07;99602.75;;;14.15;70.30
35489;BME280;21602;55.670;37.578;2023-06-05T06:53:35;99601.09;;;14.14;70.93
35489;BME280;21602;55.670;37.578;2023-06-05T06:56:01;99592.75;;;14.11;70.71
35489;BME280;21602;55.670;37.578;2023-06-05T06:58:27;99594.38;;;14.12;70.53
35489;BME280;21602;55.670;37.578;2023-06-05T07:00:52;99595.59;;;14.04;71.10
35489;BME280;21602;55.670;37.578;2023-06-05T07:03:18;99586.44;;;14.00;70.95
35489;BME280;21602;55.670;37.578;2023-06-05T07:05:43;99599.09;;;14.04;71.16
35489;BME280;21602;55.670;37.578;2023-06-05T07:08:09;99586.75;;;14.03;70.87
35489;BME280;21602;55.670;37.578;2023-06-05T07:10:35;99588.13;;;14.06;70.68
35489;BME280;21602;55.670;37.578;2023-06-05T07:13:00;99584.31;;;14.02;71.01
35489;BME280;21602;55.670;37.578;2023-06-05T07:15:26;99583.69;;;14.17;71.01
35489;BME280;21602;55.670;37.578;2023-06-05T07:17:51;99579.34;;;14.38;70.53
35489;BME280;21602;55.670;37.578;2023-06-05T07:20:17;99580.59;;;14.52;69.75
35489;BME280;21602;55.670;37.578;2023-06-05T07:22:43;99581.25;;;14.64;69.32
35489;BME280;21602;55.670;37.578;2023-06-05T07:25:11;99578.13;;;14.72;68.98
35489;BME280;21602;55.670;37.578;2023-06-05T07:27:38;99583.59;;;14.82;68.83
35489;BME280;21602;55.670;37.578;2023-06-05T07:30:06;99581.47;;;14.90;67.59
35489;BME280;21602;55.670;37.578;2023-06-05T07:32:32;99582.97;;;14.75;67.25
35489;BME280;21602;55.670;37.578;2023-06-05T07:34:57;99582.78;;;14.82;67.40
35489;BME280;21602;55.670;37.578;2023-06-05T07:37:25;99578.34;;;14.98;66.77
35489;BME280;21602;55.670;37.578;2023-06-05T07:39:51;99584.06;;;15.06;66.07
35489;BME280;21602;55.670;37.578;2023-06-05T07:42:17;99576.91;;;15.22;66.03
35489;BME280;21602;55.670;37.578;2023-06-05T07:44:43;99572.00;;;15.56;65.39
35489;BME280;21602;55.670;37.578;2023-06-05T07:47:08;99578.06;;;15.74;64.40
35489;BME280;21602;55.670;37.578;2023-06-05T07:49:34;99571.38;;;15.81;63.75
35489;BME280;21602;55.670;37.578;2023-06-05T07:51:59;99574.44;;;16.05;63.23
35489;BME280;21602;55.670;37.578;2023-06-05T07:54:25;99575.28;;;16.21;62.78
35489;BME280;21602;55.670;37.578;2023-06-05T07:56:51;99576.88;;;16.12;62.44
35489;BME280;21602;55.670;37.578;2023-06-05T07:59:19;99575.28;;;16.16;61.80
35489;BME280;21602;55.670;37.578;2023-06-05T08:01:50;99575.03;;;16.33;60.95
35489;BME280;21602;55.670;37.578;2023-06-05T08:04:16;99576.38;;;16.30;60.53
35489;BME280;21602;55.670;37.578;2023-06-05T08:06:43;99575.63;;;16.50;60.51
35489;BME280;21602;55.670;37.578;2023-06-05T08:09:08;99570.53;;;16.64;59.24
35489;BME280;21602;55.670;37.578;2023-06-05T08:11:35;99566.75;;;16.65;59.32
35489;BME280;21602;55.670;37.578;2023-06-05T08:14:01;99566.75;;;16.65;59.14
35489;BME280;21602;55.670;37.578;2023-06-05T08:16:29;99569.44;;;16.60;58.60
35489;BME280;21602;55.670;37.578;2023-06-05T08:18:54;99571.03;;;16.46;59.21
35489;BME280;21602;55.670;37.578;2023-06-05T08:21:20;99566.44;;;16.46;59.21
35489;BME280;21602;55.670;37.578;2023-06-05T08:23:46;99564.03;;;16.60;59.13
35489;BME280;21602;55.670;37.578;2023-06-05T08:26:11;99562.44;;;16.64;58.70
35489;BME280;21602;55.670;37.578;2023-06-05T08:28:40;99554.34;;;16.59;58.64
35489;BME280;21602;55.670;37.578;2023-06-05T08:31:06;99555.44;;;16.53;58.75
35489;BME280;21602;55.670;37.578;2023-06-05T08:33:35;99561.63;;;16.48;58.75
35489;BME280;21602;55.670;37.578;2023-06-05T08:36:01;99559.16;;;16.47;58.75
35489;BME280;21602;55.670;37.578;2023-06-05T08:38:28;99564.56;;;16.42;58.70
35489;BME280;21602;55.670;37.578;2023-06-05T08:40:59;99561.34;;;16.45;58.65
35489;BME280;21602;55.670;37.578;2023-06-05T08:43:25;99560.25;;;16.51;58.65
35489;BME280;21602;55.670;37.578;2023-06-05T08:45:51;99558.94;;;16.63;58.29
35489;BME280;21602;55.670;37.578;2023-06-05T08:48:18;99553.84;;;16.87;57.83
35489;BME280;21602;55.670;37.578;2023-06-05T08:50:45;99557.09;;;17.05;56.80
35489;BME280;21602;55.670;37.578;2023-06-05T08:53:12;99547.66;;;16.97;56.66
35489;BME280;21602;55.670;37.578;2023-06-05T08:55:44;99543.88;;;16.88;56.44
35489;BME280;21602;55.670;37.578;2023-06-05T08:58:10;99543.88;;;16.88;56.71
35489;BME280;21602;55.670;37.578;2023-06-05T09:00:37;99541.44;;;16.97;56.79
35489;BME280;21602;55.670;37.578;2023-06-05T09:03:03;99539.28;;;16.94;55.68
35489;BME280;21602;55.670;37.578;2023-06-05T09:05:29;99537.66;;;16.98;55.56
35489;BME280;21602;55.670;37.578;2023-06-05T09:07:55;99530.38;;;17.24;55.45
35489;BME280;21602;55.670;37.578;2023-06-05T09:10:26;99533.28;;;17.43;54.21
35489;BME280;21602;55.670;37.578;2023-06-05T09:12:52;99535.13;;;17.57;53.84
35489;BME280;21602;55.670;37.578;2023-06-05T09:15:21;99522.94;;;17.70;52.87
35489;BME280;21602;55.670;37.578;2023-06-05T09:17:48;99521.75;;;18.02;52.65
35489;BME280;21602;55.670;37.578;2023-06-05T09:20:23;99512.97;;;18.25;52.19
35489;BME280;21602;55.670;37.578;2023-06-05T09:22:49;99508.47;;;18.50;51.46
35489;BME280;21602;55.670;37.578;2023-06-05T09:25:15;99515.66;;;18.64;50.41
35489;BME280;21602;55.670;37.578;2023-06-05T09:27:41;99509.81;;;18.52;49.88
35489;BME280;21602;55.670;37.578;2023-06-05T09:30:09;99505.22;;;18.53;50.08
35489;BME280;21602;55.670;37.578;2023-06-05T09:32:36;99504.59;;;18.61;49.88
35489;BME280;21602;55.670;37.578;2023-06-05T09:35:03;99504.09;;;18.59;49.37
35489;BME280;21602;55.670;37.578;2023-06-05T09:37:34;99503.31;;;18.53;49.27
35489;BME280;21602;55.670;37.578;2023-06-05T09:40:01;99496.69;;;18.35;49.07
35489;BME280;21602;55.670;37.578;2023-06-05T09:42:36;99503.06;;;18.10;49.42
35489;BME280;21602;55.670;37.578;2023-06-05T09:45:02;99505.63;;;17.86;50.11
35489;BME280;21602;55.670;37.578;2023-06-05T09:47:30;99513.25;;;17.64;50.07
35489;BME280;21602;55.670;37.578;2023-06-05T09:49:56;99512.78;;;17.36;50.12
35489;BME280;21602;55.670;37.578;2023-06-05T09:52:21;99509.59;;;17.09;50.39
35489;BME280;21602;55.670;37.578;2023-06-05T09:54:47;99523.66;;;16.80;53.71
35489;BME280;21602;55.670;37.578;2023-06-05T09:57:13;99540.28;;;16.26;57.82
35489;BME280;21602;55.670;37.578;2023-06-05T10:02:11;99530.69;;;15.73;59.61
35489;BME280;21602;55.670;37.578;2023-06-05T10:04:56;99521.22;;;15.65;61.71
35489;BME280;21602;55.670;37.578;2023-06-05T10:07:24;99519.41;;;15.81;62.14
35489;BME280;21602;55.670;37.578;2023-06-05T10:09:50;99506.25;;;16.00;60.91
35489;BME280;21602;55.670;37.578;2023-06-05T10:12:16;99504.97;;;16.18;61.14
35489;BME280;21602;55.670;37.578;2023-06-05T10:14:42;99512.31;;;16.53;60.76
35489;BME280;21602;55.670;37.578;2023-06-05T10:17:08;99504.53;;;16.82;59.13
35489;BME280;21602;55.670;37.578;2023-06-05T10:19:35;99505.31;;;16.98;58.92
35489;BME280;21602;55.670;37.578;2023-06-05T10:22:04;99509.63;;;16.99;58.39
35489;BME280;21602;55.670;37.578;2023-06-05T10:24:30;99506.13;;;16.83;57.82
35489;BME280;21602;55.670;37.578;2023-06-05T10:40:15;99494.97;;;17.40;56.83
35489;BME280;21602;55.670;37.578;2023-06-05T10:42:45;99497.31;;;17.67;55.82
35489;BME280;21602;55.670;37.578;2023-06-05T10:45:10;99490.75;;;17.89;55.44
35489;BME280;21602;55.670;37.578;2023-06-05T10:52:47;99484.56;;;17.83;55.20
35489;BME280;21602;55.670;37.578;2023-06-05T10:55:13;99485.06;;;17.96;55.31
35489;BME280;21602;55.670;37.578;2023-06-05T11:00:18;99484.75;;;17.97;55.37
35489;BME280;21602;55.670;37.578;2023-06-05T11:02:47;99478.88;;;17.85;55.49
35489;BME280;21602;55.670;37.578;2023-06-05T11:05:13;99476.00;;;17.66;56.12
35489;BME280;21602;55.670;37.578;2023-06-05T11:07:42;99471.69;;;17.55;56.43
35489;BME280;21602;55.670;37.578;2023-06-05T11:15:07;99530.41;;;16.78;59.70
35489;BME280;21602;55.670;37.578;2023-06-05T11:17:34;99539.44;;;16.10;61.11
35489;BME280;21602;55.670;37.578;2023-06-05T11:20:00;99548.53;;;15.47;65.83
35489;BME280;21602;55.670;37.578;2023-06-05T11:22:26;99552.69;;;14.53;75.95
35489;BME280;21602;55.670;37.578;2023-06-05T11:27:42;99521.91;;;13.46;77.42
35489;BME280;21602;55.670;37.578;2023-06-05T11:30:11;99520.69;;;13.37;78.15
35489;BME280;21602;55.670;37.578;2023-06-05T11:32:37;99521.91;;;13.46;77.77
35489;BME280;21602;55.670;37.578;2023-06-05T11:35:03;99519.53;;;13.71;77.99
35489;BME280;21602;55.670;37.578;2023-06-05T11:37:29;99513.31;;;14.42;78.35
35489;BME280;21602;55.670;37.578;2023-06-05T11:40:01;99505.41;;;14.89;77.69
35489;BME280;21602;55.670;37.578;2023-06-05T11:42:31;99493.22;;;15.19;79.02
35489;BME280;21602;55.670;37.578;2023-06-05T11:44:59;99481.19;;;15.26;77.50
35489;BME280;21602;55.670;37.578;2023-06-05T11:47:26;99482.25;;;15.25;74.93
35489;BME280;21602;55.670;37.578;2023-06-05T11:49:54;99485.41;;;15.12;72.53
35489;BME280;21602;55.670;37.578;2023-06-05T11:52:20;99491.84;;;15.06;72.67
35489;BME280;21602;55.670;37.578;2023-06-05T11:54:53;99494.00;;;15.14;73.93
35489;BME280;21602;55.670;37.578;2023-06-05T11:57:46;99497.09;;;15.38;73.95
35489;BME280;21602;55.670;37.578;2023-06-05T12:00:15;99500.69;;;15.54;72.92
35489;BME280;21602;55.670;37.578;2023-06-05T12:02:42;99519.53;;;15.54;71.71
35489;BME280;21602;55.670;37.578;2023-06-05T12:05:08;99529.97;;;15.45;72.49
35489;BME280;21602;55.670;37.578;2023-06-05T12:07:35;99544.97;;;15.31;70.88
35489;BME280;21602;55.670;37.578;2023-06-05T12:10:05;99558.78;;;15.07;70.96
35489;BME280;21602;55.670;37.578;2023-06-05T12:12:32;99562.69;;;14.95;72.91
35489;BME280;21602;55.670;37.578;2023-06-05T12:15:17;99565.22;;;14.74;75.06
35489;BME280;21602;55.670;37.578;2023-06-05T12:18:37;99566.34;;;14.51;76.34
35489;BME280;21602;55.670;37.578;2023-06-05T12:21:03;99568.91;;;14.41;77.70
35489;BME280;21602;55.670;37.578;2023-06-05T12:23:31;99567.84;;;14.42;78.00
35489;BME280;21602;55.670;37.578;2023-06-05T12:26:01;99548.22;;;14.42;76.35
35489;BME280;21602;55.670;37.578;2023-06-05T12:28:31;99534.78;;;14.64;75.65
35489;BME280;21602;55.670;37.578;2023-06-05T12:30:57;99528.19;;;15.19;73.65
35489;BME280;21602;55.670;37.578;2023-06-05T12:33:22;99527.28;;;16.03;71.82
35489;BME280;21602;55.670;37.578;2023-06-05T12:36:04;99520.94;;;17.06;69.80
35489;BME280;21602;55.670;37.578;2023-06-05T12:38:30;99524.00;;;17.69;67.73
35489;BME280;21602;55.670;37.578;2023-06-05T12:40:56;99518.34;;;17.81;64.27
35489;BME280;21602;55.670;37.578;2023-06-05T12:43:22;99520.66;;;18.03;65.70
35489;BME280;21602;55.670;37.578;2023-06-05T12:45:49;99520.38;;;18.09;64.57
35489;BME280;21602;55.670;37.578;2023-06-05T12:48:15;99506.13;;;17.88;62.50
35489;BME280;21602;55.670;37.578;2023-06-05T12:50:41;99512.94;;;17.71;63.17
35489;BME280;21602;55.670;37.578;2023-06-05T12:53:07;99509.53;;;17.45;63.68
35489;BME280;21602;55.670;37.578;2023-06-05T12:55:32;99512.53;;;17.23;63.65
35489;BME280;21602;55.670;37.578;2023-06-05T12:57:58;99511.50;;;17.08;64.30
35489;BME280;21602;55.670;37.578;2023-06-05T13:00:27;99511.22;;;16.95;64.57
35489;BME280;21602;55.670;37.578;2023-06-05T13:02:53;99511.00;;;16.86;64.14
35489;BME280;21602;55.670;37.578;2023-06-05T13:05:18;99521.50;;;16.77;64.56
35489;BME280;21602;55.670;37.578;2023-06-05T13:07:44;99511.00;;;16.81;65.15
35489;BME280;21602;55.670;37.578;2023-06-05T13:10:10;99515.59;;;16.85;65.06
35489;BME280;21602;55.670;37.578;2023-06-05T13:12:36;99518.00;;;16.77;64.42
35489;BME280;21602;55.670;37.578;2023-06-05T13:15:02;99516.34;;;16.71;64.54
35489;BME280;21602;55.670;37.578;2023-06-05T13:17:30;99509.91;;;16.67;65.37
35489;BME280;21602;55.670;37.578;2023-06-05T13:19:58;99503.13;;;16.69;65.31
35489;BME280;21602;55.670;37.578;2023-06-05T13:22:27;99504.78;;;16.80;65.41
35489;BME280;21602;55.670;37.578;2023-06-05T13:24:52;99507.75;;;16.89;65.62